sensor_id;sensor_type;location;lat;lon;timestamp;pressure;altitude;pressure_sealevel;temperature;humidity
82379;BME280;72008;48.140;11.614;2024-01-30T00:00:31;96819.16;;;5.31;81.26
82379;BME280;72008;48.140;11.614;2024-01-30T00:01:31;96821.59;;;5.33;80.24
82379;BME280;72008;48.140;11.614;2024-01-30T00:02:32;96820.22;;;5.35;81.57
82379;BME280;72008;48.140;11.614;2024-01-30T00:03:32;96818.88;;;5.33;80.05
82379;BME280;72008;48.140;11.614;2024-01-30T00:04:36;96816.69;;;5.35;81.44
82379;BME280;72008;48.140;11.614;2024-01-30T00:05:36;96819.69;;;5.33;80.07
82379;BME280;72008;48.140;11.614;2024-01-30T00:06:36;96819.44;;;5.30;80.94
82379;BME280;72008;48.140;11.614;2024-01-30T00:07:37;96824.31;;;5.28;81.21
82379;BME280;72008;48.140;11.614;2024-01-30T00:08:37;96824.88;;;5.30;82.72
82379;BME280;72008;48.140;11.614;2024-01-30T00:09:38;96825.94;;;5.34;81.65
82379;BME280;72008;48.140;11.614;2024-01-30T00:10:38;96826.19;;;5.32;80.87
82379;BME280;72008;48.140;11.614;2024-01-30T00:11:39;96825.38;;;5.37;81.34
82379;BME280;72008;48.140;11.614;2024-01-30T00:12:40;96825.38;;;5.32;76.36
82379;BME280;72008;48.140;11.614;2024-01-30T00:13:40;96821.59;;;5.28;80.52
82379;BME280;72008;48.140;11.614;2024-01-30T00:14:42;96822.94;;;5.35;82.51
82379;BME280;72008;48.140;11.614;2024-01-30T00:15:42;96827.00;;;5.38;81.70
82379;BME280;72008;48.140;11.614;2024-01-30T00:16:42;96822.91;;;5.40;80.77
82379;BME280;72008;48.140;11.614;2024-01-30T00:17:43;96827.28;;;5.41;82.91
82379;BME280;72008;48.140;11.614;2024-01-30T00:18:43;96829.44;;;5.39;80.18
82379;BME280;72008;48.140;11.614;2024-01-30T00:19:44;96825.13;;;5.38;81.35
82379;BME280;72008;48.140;11.614;2024-01-30T00:20:44;96833.78;;;5.35;80.47
82379;BME280;72008;48.140;11.614;2024-01-30T00:21:44;96826.44;;;5.41;81.23
82379;BME280;72008;48.140;11.614;2024-01-30T00:22:45;96828.34;;;5.35;80.41
82379;BME280;72008;48.140;11.614;2024-01-30T00:23:46;96821.59;;;5.33;82.00
82379;BME280;72008;48.140;11.614;2024-01-30T00:24:46;96826.22;;;5.27;81.78
82379;BME280;72008;48.140;11.614;2024-01-30T00:25:47;96821.88;;;5.26;81.33
82379;BME280;72008;48.140;11.614;2024-01-30T00:26:47;96828.16;;;5.21;80.29
82379;BME280;72008;48.140;11.614;2024-01-30T00:27:47;96826.78;;;5.24;82.51
82379;BME280;72008;48.140;11.614;2024-01-30T00:28:48;96823.78;;;5.25;80.97
82379;BME280;72008;48.140;11.614;2024-01-30T00:29:48;96829.75;;;5.28;80.22
82379;BME280;72008;48.140;11.614;2024-01-30T00:30:49;96828.13;;;5.27;82.32
82379;BME280;72008;48.140;11.614;2024-01-30T00:31:49;96824.88;;;5.19;80.40
82379;BME280;72008;48.140;11.614;2024-01-30T00:32:49;96833.84;;;5.20;81.60
82379;BME280;72008;48.140;11.614;2024-01-30T00:33:50;96834.13;;;5.18;81.42
82379;BME280;72008;48.140;11.614;2024-01-30T00:34:50;96827.34;;;5.16;81.17
82379;BME280;72008;48.140;11.614;2024-01-30T00:35:51;96830.59;;;5.18;78.43
82379;BME280;72008;48.140;11.614;2024-01-30T00:36:51;96821.63;;;5.17;78.43
82379;BME280;72008;48.140;11.614;2024-01-30T00:37:52;96823.28;;;5.13;81.12
82379;BME280;72008;48.140;11.614;2024-01-30T00:38:52;96825.44;;;5.16;81.66
82379;BME280;72008;48.140;11.614;2024-01-30T00:39:52;96824.38;;;5.07;80.27
82379;BME280;72008;48.140;11.614;2024-01-30T00:40:53;96817.84;;;5.08;81.37
82379;BME280;72008;48.140;11.614;2024-01-30T00:41:53;96826.28;;;5.01;82.03
82379;BME280;72008;48.140;11.614;2024-01-30T00:42:54;96828.72;;;5.03;81.32
82379;BME280;72008;48.140;11.614;2024-01-30T00:43:54;96820.03;;;5.06;81.75
82379;BME280;72008;48.140;11.614;2024-01-30T00:44:54;96823.56;;;5.12;82.39
82379;BME280;72008;48.140;11.614;2024-01-30T00:45:55;96817.59;;;5.10;79.95
82379;BME280;72008;48.140;11.614;2024-01-30T00:46:55;96820.84;;;5.07;80.56
82379;BME280;72008;48.140;11.614;2024-01-30T00:47:56;96826.00;;;5.08;78.79
82379;BME280;72008;48.140;11.614;2024-01-30T00:48:56;96822.47;;;5.13;79.48
82379;BME280;72008;48.140;11.614;2024-01-30T00:49:56;96822.22;;;5.09;80.64
82379;BME280;72008;48.140;11.614;2024-01-30T00:50:57;96816.50;;;5.06;80.53
82379;BME280;72008;48.140;11.614;2024-01-30T00:51:58;96822.47;;;5.08;79.74
82379;BME280;72008;48.140;11.614;2024-01-30T00:52:58;96824.38;;;5.12;81.45
82379;BME280;72008;48.140;11.614;2024-01-30T00:53:59;96823.28;;;5.13;77.09
82379;BME280;72008;48.140;11.614;2024-01-30T00:54:59;96815.38;;;5.17;80.67
82379;BME280;72008;48.140;11.614;2024-01-30T00:56:00;96821.91;;;5.16;79.16
82379;BME280;72008;48.140;11.614;2024-01-30T00:57:00;96820.81;;;5.17;76.46
82379;BME280;72008;48.140;11.614;2024-01-30T00:58:01;96826.25;;;5.22;80.53
82379;BME280;72008;48.140;11.614;2024-01-30T00:59:01;96817.84;;;5.23;77.94
82379;BME280;72008;48.140;11.614;2024-01-30T01:00:03;96820.56;;;5.18;79.98
82379;BME280;72008;48.140;11.614;2024-01-30T01:01:03;96824.63;;;5.21;79.45
82379;BME280;72008;48.140;11.614;2024-01-30T01:02:04;96824.88;;;5.24;81.69
82379;BME280;72008;48.140;11.614;2024-01-30T01:03:04;96828.41;;;5.25;81.12
82379;BME280;72008;48.140;11.614;2024-01-30T01:04:05;96827.34;;;5.21;79.07
82379;BME280;72008;48.140;11.614;2024-01-30T01:05:05;96824.88;;;5.19;77.11
82379;BME280;72008;48.140;11.614;2024-01-30T01:06:06;96823.28;;;5.18;78.82
82379;BME280;72008;48.140;11.614;2024-01-30T01:07:06;96824.63;;;5.21;82.32
82379;BME280;72008;48.140;11.614;2024-01-30T01:08:07;96826.25;;;5.22;79.76
82379;BME280;72008;48.140;11.614;2024-01-30T01:09:07;96824.06;;;5.14;81.82
82379;BME280;72008;48.140;11.614;2024-01-30T01:10:08;96823.28;;;5.13;80.94
82379;BME280;72008;48.140;11.614;2024-01-30T01:11:08;96830.34;;;5.09;80.98
82379;BME280;72008;48.140;11.614;2024-01-30T01:12:09;96820.31;;;5.10;83.26
82379;BME280;72008;48.140;11.614;2024-01-30T01:13:09;96829.50;;;5.09;82.85
82379;BME280;72008;48.140;11.614;2024-01-30T01:14:09;96835.78;;;5.09;82.22
82379;BME280;72008;48.140;11.614;2024-01-30T01:15:11;96833.88;;;5.10;81.58
82379;BME280;72008;48.140;11.614;2024-01-30T01:16:11;96820.84;;;5.12;82.82
82379;BME280;72008;48.140;11.614;2024-01-30T01:17:12;96824.63;;;5.11;83.03
82379;BME280;72008;48.140;11.614;2024-01-30T01:18:12;96825.16;;;5.18;83.79
82379;BME280;72008;48.140;11.614;2024-01-30T01:19:12;96817.03;;;5.18;81.25
82379;BME280;72008;48.140;11.614;2024-01-30T01:20:13;96828.44;;;5.15;80.65
82379;BME280;72008;48.140;11.614;2024-01-30T01:21:13;96832.50;;;5.07;81.59
82379;BME280;72008;48.140;11.614;2024-01-30T01:22:14;96827.91;;;5.08;83.02
82379;BME280;72008;48.140;11.614;2024-01-30T01:23:14;96826.00;;;5.08;81.77
82379;BME280;72008;48.140;11.614;2024-01-30T01:24:15;96821.91;;;5.11;80.57
82379;BME280;72008;48.140;11.614;2024-01-30T01:25:15;96825.44;;;5.11;81.66
82379;BME280;72008;48.140;11.614;2024-01-30T01:26:15;96823.31;;;4.98;78.36
82379;BME280;72008;48.140;11.614;2024-01-30T01:27:16;96822.50;;;4.97;82.70
82379;BME280;72008;48.140;11.614;2024-01-30T01:28:16;96828.47;;;4.94;80.37
82379;BME280;72008;48.140;11.614;2024-01-30T01:29:17;96832.53;;;4.92;79.90
82379;BME280;72008;48.140;11.614;2024-01-30T01:30:17;96825.47;;;4.96;81.11
82379;BME280;72008;48.140;11.614;2024-01-30T01:31:18;96819.50;;;4.99;81.14
82379;BME280;72008;48.140;11.614;2024-01-30T01:32:18;96833.63;;;5.01;79.98
82379;BME280;72008;48.140;11.614;2024-01-30T01:33:19;96829.00;;;4.96;80.91
82379;BME280;72008;48.140;11.614;2024-01-30T01:34:19;96830.09;;;4.95;81.66
82379;BME280;72008;48.140;11.614;2024-01-30T01:35:23;96818.69;;;5.04;81.02
82379;BME280;72008;48.140;11.614;2024-01-30T01:36:24;96820.31;;;5.10;83.48
82379;BME280;72008;48.140;11.614;2024-01-30T01:37:24;96830.91;;;5.06;81.29
82379;BME280;72008;48.140;11.614;2024-01-30T01:38:25;96820.84;;;5.07;80.28
82379;BME280;72008;48.140;11.614;2024-01-30T01:39:25;96820.00;;;5.11;80.87
82379;BME280;72008;48.140;11.614;2024-01-30T01:40:27;96820.00;;;5.11;82.59
82379;BME280;72008;48.140;11.614;2024-01-30T01:41:31;96820.84;;;5.12;80.01
82379;BME280;72008;48.140;11.614;2024-01-30T01:42:32;96820.28;;;5.15;81.20
82379;BME280;72008;48.140;11.614;2024-01-30T01:43:32;96820.28;;;5.15;81.66
82379;BME280;72008;48.140;11.614;2024-01-30T01:44:32;96811.88;;;5.11;79.25
82379;BME280;72008;48.140;11.614;2024-01-30T01:45:33;96822.47;;;5.13;81.07
82379;BME280;72008;48.140;11.614;2024-01-30T01:46:34;96815.38;;;5.17;82.63
82379;BME280;72008;48.140;11.614;2024-01-30T01:47:34;96813.78;;;5.16;82.02
82379;BME280;72008;48.140;11.614;2024-01-30T01:48:36;96820.56;;;5.13;80.43
82379;BME280;72008;48.140;11.614;2024-01-30T01:49:37;96816.22;;;5.12;79.28
82379;BME280;72008;48.140;11.614;2024-01-30T01:50:39;96813.78;;;5.06;80.29
82379;BME280;72008;48.140;11.614;2024-01-30T01:51:41;96811.34;;;5.04;79.45
82379;BME280;72008;48.140;11.614;2024-01-30T01:52:43;96812.16;;;4.99;81.51
82379;BME280;72008;48.140;11.614;2024-01-30T01:53:44;96817.34;;;4.96;82.33
82379;BME280;72008;48.140;11.614;2024-01-30T01:54:44;96816.78;;;4.99;81.61
82379;BME280;72008;48.140;11.614;2024-01-30T01:55:45;96814.63;;;5.01;80.65
82379;BME280;72008;48.140;11.614;2024-01-30T01:56:46;96816.53;;;5.00;81.28
82379;BME280;72008;48.140;11.614;2024-01-30T01:57:47;96815.16;;;4.98;80.55
82379;BME280;72008;48.140;11.614;2024-01-30T01:58:49;96819.25;;;4.95;79.42
82379;BME280;72008;48.140;11.614;2024-01-30T01:59:50;96822.50;;;4.97;80.49
82379;BME280;72008;48.140;11.614;2024-01-30T02:00:51;96816.78;;;5.04;81.60
82379;BME280;72008;48.140;11.614;2024-01-30T02:01:54;96815.97;;;5.04;80.96
82379;BME280;72008;48.140;11.614;2024-01-30T02:02:56;96813.50;;;5.07;83.69
82379;BME280;72008;48.140;11.614;2024-01-30T02:03:58;96821.66;;;5.02;81.43
82379;BME280;72008;48.140;11.614;2024-01-30T02:04:59;96821.16;;;5.00;81.54
82379;BME280;72008;48.140;11.614;2024-01-30T02:06:01;96821.41;;;4.98;82.82
82379;BME280;72008;48.140;11.614;2024-01-30T02:07:03;96819.50;;;4.99;81.71
82379;BME280;72008;48.140;11.614;2024-01-30T02:08:04;96814.91;;;4.89;76.06
82379;BME280;72008;48.140;11.614;2024-01-30T02:09:05;96815.97;;;4.93;83.10
82379;BME280;72008;48.140;11.614;2024-01-30T02:10:07;96816.25;;;4.97;82.45
82379;BME280;72008;48.140;11.614;2024-01-30T02:11:08;96819.78;;;4.97;81.82
82379;BME280;72008;48.140;11.614;2024-01-30T02:12:08;96816.78;;;4.94;79.22
82379;BME280;72008;48.140;11.614;2024-01-30T02:13:09;96815.97;;;4.93;78.99
82379;BME280;72008;48.140;11.614;2024-01-30T02:14:09;96813.81;;;5.00;82.51
82379;BME280;72008;48.140;11.614;2024-01-30T02:15:13;96811.09;;;5.00;82.87
82379;BME280;72008;48.140;11.614;2024-01-30T02:16:13;96820.03;;;4.96;80.23
82379;BME280;72008;48.140;11.614;2024-01-30T02:17:15;96818.16;;;4.91;81.51
82379;BME280;72008;48.140;11.614;2024-01-30T02:18:16;96818.97;;;4.87;77.72
82379;BME280;72008;48.140;11.614;2024-01-30T02:19:16;96828.22;;;4.81;78.29
82379;BME280;72008;48.140;11.614;2024-01-30T02:20:17;96827.66;;;4.84;80.88
82379;BME280;72008;48.140;11.614;2024-01-30T02:21:18;96822.25;;;4.78;81.34
82379;BME280;72008;48.140;11.614;2024-01-30T02:22:20;96814.94;;;4.74;80.49
82379;BME280;72008;48.140;11.614;2024-01-30T02:23:20;96824.97;;;4.73;80.56
82379;BME280;72008;48.140;11.614;2024-01-30T02:24:22;96825.25;;;4.77;81.27
82379;BME280;72008;48.140;11.614;2024-01-30T02:25:38;96819.53;;;4.84;82.79
82379;BME280;72008;48.140;11.614;2024-01-30T02:26:39;96827.41;;;4.80;82.79
82379;BME280;72008;48.140;11.614;2024-01-30T02:27:39;96832.28;;;4.78;81.84
82379;BME280;72008;48.140;11.614;2024-01-30T02:28:40;96827.94;;;4.77;82.72
82379;BME280;72008;48.140;11.614;2024-01-30T02:29:40;96829.56;;;4.78;82.92
82379;BME280;72008;48.140;11.614;2024-01-30T02:30:42;96826.59;;;4.79;80.29
82379;BME280;72008;48.140;11.614;2024-01-30T02:31:43;96829.03;;;4.86;82.31
82379;BME280;72008;48.140;11.614;2024-01-30T02:32:43;96824.94;;;4.89;83.17
82379;BME280;72008;48.140;11.614;2024-01-30T02:33:44;96824.16;;;4.88;81.37
82379;BME280;72008;48.140;11.614;2024-01-30T02:34:44;96823.59;;;4.91;81.53
82379;BME280;72008;48.140;11.614;2024-01-30T02:35:45;96821.44;;;4.88;81.25
82379;BME280;72008;48.140;11.614;2024-01-30T02:36:45;96821.44;;;4.88;82.07
82379;BME280;72008;48.140;11.614;2024-01-30T02:37:46;96814.91;;;4.84;80.44
82379;BME280;72008;48.140;11.614;2024-01-30T02:38:46;96823.88;;;4.74;81.64
82379;BME280;72008;48.140;11.614;2024-01-30T02:39:46;96824.69;;;4.75;79.39
82379;BME280;72008;48.140;11.614;2024-01-30T02:40:47;96827.94;;;4.72;80.63
82379;BME280;72008;48.140;11.614;2024-01-30T02:41:47;96822.25;;;4.68;80.09
82379;BME280;72008;48.140;11.614;2024-01-30T02:42:48;96824.69;;;4.75;83.66
82379;BME280;72008;48.140;11.614;2024-01-30T02:43:48;96828.50;;;4.74;83.17
82379;BME280;72008;48.140;11.614;2024-01-30T02:44:49;96829.84;;;4.76;82.36
82379;BME280;72008;48.140;11.614;2024-01-30T02:45:49;96823.34;;;4.77;81.99
82379;BME280;72008;48.140;11.614;2024-01-30T02:46:49;96826.31;;;4.76;81.81
82379;BME280;72008;48.140;11.614;2024-01-30T02:47:50;96820.06;;;4.75;83.14
82379;BME280;72008;48.140;11.614;2024-01-30T02:48:50;96820.88;;;4.76;82.48
82379;BME280;72008;48.140;11.614;2024-01-30T02:49:51;96820.06;;;4.75;82.21
82379;BME280;72008;48.140;11.614;2024-01-30T02:50:51;96817.38;;;4.70;81.18
82379;BME280;72008;48.140;11.614;2024-01-30T02:51:53;96820.63;;;4.77;80.96
82379;BME280;72008;48.140;11.614;2024-01-30T02:52:54;96813.84;;;4.75;80.87
82379;BME280;72008;48.140;11.614;2024-01-30T02:53:54;96815.47;;;4.71;80.65
82379;BME280;72008;48.140;11.614;2024-01-30T02:54:55;96814.13;;;4.73;81.69
82379;BME280;72008;48.140;11.614;2024-01-30T02:55:55;96814.66;;;4.65;78.66
82379;BME280;72008;48.140;11.614;2024-01-30T02:56:55;96814.66;;;4.60;80.42
82379;BME280;72008;48.140;11.614;2024-01-30T02:57:56;96807.88;;;4.57;81.21
82379;BME280;72008;48.140;11.614;2024-01-30T02:58:56;96810.31;;;4.64;82.53
82379;BME280;72008;48.140;11.614;2024-01-30T02:59:57;96801.91;;;4.66;80.54
82379;BME280;72008;48.140;11.614;2024-01-30T03:00:57;96797.84;;;4.68;80.23
82379;BME280;72008;48.140;11.614;2024-01-30T03:01:57;96800.28;;;4.70;80.02
82379;BME280;72008;48.140;11.614;2024-01-30T03:02:58;96803.53;;;4.67;79.28
82379;BME280;72008;48.140;11.614;2024-01-30T03:03:58;96808.69;;;4.68;79.92
82379;BME280;72008;48.140;11.614;2024-01-30T03:04:59;96803.81;;;4.65;78.24
82379;BME280;72008;48.140;11.614;2024-01-30T03:05:59;96795.13;;;4.68;81.17
82379;BME280;72008;48.140;11.614;2024-01-30T03:07:00;96805.44;;;4.71;80.14
82379;BME280;72008;48.140;11.614;2024-01-30T03:08:00;96808.97;;;4.72;80.58
82379;BME280;72008;48.140;11.614;2024-01-30T03:09:01;96805.44;;;4.66;78.55
82379;BME280;72008;48.140;11.614;2024-01-30T03:10:01;96803.53;;;4.67;79.94
82379;BME280;72008;48.140;11.614;2024-01-30T03:11:02;96797.28;;;4.61;81.99
82379;BME280;72008;48.140;11.614;2024-01-30T03:12:03;96798.13;;;4.62;82.35
82379;BME280;72008;48.140;11.614;2024-01-30T03:13:04;96794.88;;;4.49;76.89
82379;BME280;72008;48.140;11.614;2024-01-30T03:14:04;96797.84;;;4.58;81.27
82379;BME280;72008;48.140;11.614;2024-01-30T03:15:05;96805.47;;;4.56;79.41
82379;BME280;72008;48.140;11.614;2024-01-30T03:16:06;96795.44;;;4.62;81.56
82379;BME280;72008;48.140;11.614;2024-01-30T03:17:06;96805.72;;;4.54;81.32
82379;BME280;72008;48.140;11.614;2024-01-30T03:18:06;96793.81;;;4.55;80.23
82379;BME280;72008;48.140;11.614;2024-01-30T03:19:07;96800.31;;;4.60;79.29
82379;BME280;72008;48.140;11.614;2024-01-30T03:20:07;96799.50;;;4.59;77.87
82379;BME280;72008;48.140;11.614;2024-01-30T03:21:08;96793.25;;;4.59;81.20
82379;BME280;72008;48.140;11.614;2024-01-30T03:22:08;96798.66;;;4.64;80.61
82379;BME280;72008;48.140;11.614;2024-01-30T03:23:09;96794.31;;;4.63;80.79
82379;BME280;72008;48.140;11.614;2024-01-30T03:24:09;96796.75;;;4.64;78.46
82379;BME280;72008;48.140;11.614;2024-01-30T03:25:10;96790.53;;;4.59;78.95
82379;BME280;72008;48.140;11.614;2024-01-30T03:26:10;96798.66;;;4.64;81.41
82379;BME280;72008;48.140;11.614;2024-01-30T03:27:11;96799.75;;;4.63;80.87
82379;BME280;72008;48.140;11.614;2024-01-30T03:28:11;96792.72;;;4.62;78.65
82379;BME280;72008;48.140;11.614;2024-01-30T03:29:12;96793.22;;;4.64;80.61
82379;BME280;72008;48.140;11.614;2024-01-30T03:30:12;96789.97;;;4.67;80.51
82379;BME280;72008;48.140;11.614;2024-01-30T03:31:15;96791.88;;;4.66;78.88
82379;BME280;72008;48.140;11.614;2024-01-30T03:32:16;96789.97;;;4.67;79.61
82379;BME280;72008;48.140;11.614;2024-01-30T03:33:16;96785.91;;;4.64;77.78
82379;BME280;72008;48.140;11.614;2024-01-30T03:34:16;96789.72;;;4.73;79.49
82379;BME280;72008;48.140;11.614;2024-01-30T03:35:18;96795.94;;;4.69;79.17
82379;BME280;72008;48.140;11.614;2024-01-30T03:36:19;96787.00;;;4.68;77.83
82379;BME280;72008;48.140;11.614;2024-01-30T03:37:20;96797.56;;;4.70;77.82
82379;BME280;72008;48.140;11.614;2024-01-30T03:38:20;96794.31;;;4.52;78.48
82379;BME280;72008;48.140;11.614;2024-01-30T03:39:21;96791.59;;;4.52;74.75
82379;BME280;72008;48.140;11.614;2024-01-30T03:40:21;96795.94;;;4.43;75.40
82379;BME280;72008;48.140;11.614;2024-01-30T03:41:21;96793.78;;;4.45;74.83
82379;BME280;72008;48.140;11.614;2024-01-30T03:42:22;96794.88;;;4.39;77.81
82379;BME280;72008;48.140;11.614;2024-01-30T03:43:22;96791.63;;;4.47;75.29
82379;BME280;72008;48.140;11.614;2024-01-30T03:44:23;96790.28;;;4.45;75.46
82379;BME280;72008;48.140;11.614;2024-01-30T03:45:23;96790.81;;;4.57;78.49
82379;BME280;72008;48.140;11.614;2024-01-30T03:46:24;96785.09;;;4.64;75.65
82379;BME280;72008;48.140;11.614;2024-01-30T03:47:24;96795.41;;;4.72;77.22
82379;BME280;72008;48.140;11.614;2024-01-30T03:48:24;96790.25;;;4.70;76.24
82379;BME280;72008;48.140;11.614;2024-01-30T03:49:25;96786.72;;;4.75;76.62
82379;BME280;72008;48.140;11.614;2024-01-30T03:50:25;96784.81;;;4.81;77.34
82379;BME280;72008;48.140;11.614;2024-01-30T03:51:26;96784.56;;;4.72;77.06
82379;BME280;72008;48.140;11.614;2024-01-30T03:52:26;96780.47;;;4.74;77.51
82379;BME280;72008;48.140;11.614;2024-01-30T03:53:26;96781.28;;;4.80;76.08
82379;BME280;72008;48.140;11.614;2024-01-30T03:54:27;96787.22;;;4.82;77.18
82379;BME280;72008;48.140;11.614;2024-01-30T03:55:27;96781.81;;;4.87;80.28
82379;BME280;72008;48.140;11.614;2024-01-30T03:56:28;96781.28;;;4.85;77.34
82379;BME280;72008;48.140;11.614;2024-01-30T03:57:29;96776.38;;;4.82;76.14
82379;BME280;72008;48.140;11.614;2024-01-30T03:58:29;96788.59;;;4.85;79.25
82379;BME280;72008;48.140;11.614;2024-01-30T03:59:29;96782.34;;;4.84;78.78
82379;BME280;72008;48.140;11.614;2024-01-30T04:00:30;96784.81;;;4.75;74.63
82379;BME280;72008;48.140;11.614;2024-01-30T04:01:30;96788.06;;;4.77;79.67
82379;BME280;72008;48.140;11.614;2024-01-30T04:02:30;96789.44;;;4.80;78.79
82379;BME280;72008;48.140;11.614;2024-01-30T04:03:31;96789.94;;;4.82;78.34
82379;BME280;72008;48.140;11.614;2024-01-30T04:04:31;96785.88;;;4.85;79.54
82379;BME280;72008;48.140;11.614;2024-01-30T04:05:32;96787.28;;;4.51;75.92
82379;BME280;72008;48.140;11.614;2024-01-30T04:06:33;96788.91;;;4.63;78.19
82379;BME280;72008;48.140;11.614;2024-01-30T04:07:33;96784.84;;;4.70;80.33
82379;BME280;72008;48.140;11.614;2024-01-30T04:08:33;96792.13;;;4.70;78.51
82379;BME280;72008;48.140;11.614;2024-01-30T04:09:34;96791.59;;;4.73;80.16
82379;BME280;72008;48.140;11.614;2024-01-30T04:10:34;96789.72;;;4.68;75.00
82379;BME280;72008;48.140;11.614;2024-01-30T04:11:35;96787.25;;;4.72;78.31
82379;BME280;72008;48.140;11.614;2024-01-30T04:12:36;96787.25;;;4.72;80.41
82379;BME280;72008;48.140;11.614;2024-01-30T04:13:36;96787.00;;;4.73;76.96
82379;BME280;72008;48.140;11.614;2024-01-30T04:14:39;96793.75;;;4.76;79.44
82379;BME280;72008;48.140;11.614;2024-01-30T04:15:39;96791.34;;;4.69;75.61
82379;BME280;72008;48.140;11.614;2024-01-30T04:16:40;96788.91;;;4.63;74.97
82379;BME280;72008;48.140;11.614;2024-01-30T04:17:40;96790.00;;;4.56;78.92
82379;BME280;72008;48.140;11.614;2024-01-30T04:18:41;96789.16;;;4.61;80.16
82379;BME280;72008;48.140;11.614;2024-01-30T04:19:41;96792.13;;;4.70;81.36
82379;BME280;72008;48.140;11.614;2024-01-30T04:20:41;96787.25;;;4.72;79.17
82379;BME280;72008;48.140;11.614;2024-01-30T04:21:42;96782.91;;;4.76;79.21
82379;BME280;72008;48.140;11.614;2024-01-30T04:22:46;96784.25;;;4.78;79.75
82379;BME280;72008;48.140;11.614;2024-01-30T04:23:47;96788.06;;;4.83;80.31
82379;BME280;72008;48.140;11.614;2024-01-30T04:24:48;96785.09;;;4.64;77.73
82379;BME280;72008;48.140;11.614;2024-01-30T04:25:48;96795.94;;;4.74;78.58
82379;BME280;72008;48.140;11.614;2024-01-30T04:26:49;96794.84;;;4.75;78.65
82379;BME280;72008;48.140;11.614;2024-01-30T04:27:49;96787.25;;;4.77;78.29
82379;BME280;72008;48.140;11.614;2024-01-30T04:28:50;96787.81;;;4.69;77.99
82379;BME280;72008;48.140;11.614;2024-01-30T04:29:50;96788.63;;;4.74;78.89
82379;BME280;72008;48.140;11.614;2024-01-30T04:30:50;96786.72;;;4.75;76.56
82379;BME280;72008;48.140;11.614;2024-01-30T04:31:51;96789.94;;;4.82;78.79
82379;BME280;72008;48.140;11.614;2024-01-30T04:32:51;96793.78;;;4.66;76.68
82379;BME280;72008;48.140;11.614;2024-01-30T04:33:52;96786.47;;;4.71;77.86
82379;BME280;72008;48.140;11.614;2024-01-30T04:34:52;96785.91;;;4.64;75.60
82379;BME280;72008;48.140;11.614;2024-01-30T04:35:52;96784.28;;;4.68;77.64
82379;BME280;72008;48.140;11.614;2024-01-30T04:36:53;96793.22;;;4.64;73.98
82379;BME280;72008;48.140;11.614;2024-01-30T04:37:53;96785.09;;;4.64;76.97
82379;BME280;72008;48.140;11.614;2024-01-30T04:38:54;96782.94;;;4.71;78.01
82379;BME280;72008;48.140;11.614;2024-01-30T04:39:54;96788.91;;;4.63;73.74
82379;BME280;72008;48.140;11.614;2024-01-30T04:40:55;96791.88;;;4.61;75.39
82379;BME280;72008;48.140;11.614;2024-01-30T04:41:56;96786.75;;;4.65;75.67
82379;BME280;72008;48.140;11.614;2024-01-30T04:42:56;96782.13;;;4.65;76.60
82379;BME280;72008;48.140;11.614;2024-01-30T04:43:56;96784.03;;;4.65;77.02
82379;BME280;72008;48.140;11.614;2024-01-30T04:44:57;96784.84;;;4.70;77.48
82379;BME280;72008;48.140;11.614;2024-01-30T04:45:57;96787.81;;;4.74;76.67
82379;BME280;72008;48.140;11.614;2024-01-30T04:46:58;96786.72;;;4.75;78.55
82379;BME280;72008;48.140;11.614;2024-01-30T04:47:58;96786.47;;;4.76;79.29
82379;BME280;72008;48.140;11.614;2024-01-30T04:48:58;96790.78;;;4.77;75.64
82379;BME280;72008;48.140;11.614;2024-01-30T04:49:59;96791.59;;;4.78;78.05
82379;BME280;72008;48.140;11.614;2024-01-30T04:50:59;96788.88;;;4.83;77.24
82379;BME280;72008;48.140;11.614;2024-01-30T04:52:00;96786.16;;;4.83;78.87
82379;BME280;72008;48.140;11.614;2024-01-30T04:53:00;96786.72;;;4.85;77.76
82379;BME280;72008;48.140;11.614;2024-01-30T04:54:01;96783.44;;;4.88;79.92
82379;BME280;72008;48.140;11.614;2024-01-30T04:55:02;96777.47;;;4.86;77.27
82379;BME280;72008;48.140;11.614;2024-01-30T04:56:02;96784.81;;;4.81;76.88
82379;BME280;72008;48.140;11.614;2024-01-30T04:57:03;96791.03;;;4.76;76.76
82379;BME280;72008;48.140;11.614;2024-01-30T04:58:03;96783.72;;;4.82;77.66
82379;BME280;72008;48.140;11.614;2024-01-30T04:59:04;96783.44;;;4.83;78.25
82379;BME280;72008;48.140;11.614;2024-01-30T05:00:05;96785.06;;;4.84;77.97
82379;BME280;72008;48.140;11.614;2024-01-30T05:01:05;96791.34;;;4.74;77.14
82379;BME280;72008;48.140;11.614;2024-01-30T05:02:06;96786.16;;;4.83;80.05
82379;BME280;72008;48.140;11.614;2024-01-30T05:03:06;96786.97;;;4.78;76.36
82379;BME280;72008;48.140;11.614;2024-01-30T05:04:07;96794.31;;;4.83;79.08
82379;BME280;72008;48.140;11.614;2024-01-30T05:05:08;96790.25;;;4.86;79.35
82379;BME280;72008;48.140;11.614;2024-01-30T05:06:08;96788.59;;;4.90;80.17
82379;BME280;72008;48.140;11.614;2024-01-30T05:07:09;96787.78;;;4.89;79.09
82379;BME280;72008;48.140;11.614;2024-01-30T05:08:09;96784.53;;;4.87;78.47
82379;BME280;72008;48.140;11.614;2024-01-30T05:09:10;96792.66;;;4.92;79.89
82379;BME280;72008;48.140;11.614;2024-01-30T05:10:10;96785.63;;;4.86;79.28
82379;BME280;72008;48.140;11.614;2024-01-30T05:11:10;96789.13;;;4.87;78.85
82379;BME280;72008;48.140;11.614;2024-01-30T05:12:11;96786.16;;;4.88;80.65
82379;BME280;72008;48.140;11.614;2024-01-30T05:13:11;96791.03;;;4.86;79.74
82379;BME280;72008;48.140;11.614;2024-01-30T05:14:12;96795.38;;;4.87;80.89
82379;BME280;72008;48.140;11.614;2024-01-30T05:15:12;96797.81;;;4.84;78.36
82379;BME280;72008;48.140;11.614;2024-01-30T05:16:14;96803.00;;;4.85;78.83
82379;BME280;72008;48.140;11.614;2024-01-30T05:17:14;96803.53;;;4.72;76.93
82379;BME280;72008;48.140;11.614;2024-01-30T05:18:14;96805.69;;;4.70;79.41
82379;BME280;72008;48.140;11.614;2024-01-30T05:19:15;96799.72;;;4.73;80.21
82379;BME280;72008;48.140;11.614;2024-01-30T05:20:16;96804.34;;;4.72;78.31
82379;BME280;72008;48.140;11.614;2024-01-30T05:21:16;96803.78;;;4.75;79.73